DNCA

Margaret Ekpo International Airport

Calabar, Nigeria
METAR DNCA 151600Z 24004KT 5000 HZ BKN013 34/22 Q1012 NOSIG
Observed Flight Rules
Dec-15 @ 16:00 UTC (10 hours ago) Marginal Visual Flight Rules
Wind Visibility Clouds Conditions
240° at 4 knots 5,005 meters
  • Broken at 1,300' AGL
  • Haze
Temperatures Readings
Current 34°C / 93°F
Dewpoint 22°C / 72°F
Humidity 49%
Altimeter 29.88" Hg
Pressure 1012 hPa
Elevation 63
METAR DNCA 151600Z 24004KT 5000 HZ BKN013 34/22 Q1012 NOSIG
Observed Flight Rules
Dec-15 @ 16:00 UTC
(10 hours ago)
MVFR
Wind Visibility
240° at 4 knots 5,005 meters
Clouds
  • Broken at 1,300' AGL
Conditions
  • Haze
Temperature Dewpoint
34°C / 93°F 22°C / 72°F
Humidity Altimeter Pressure
49% 29.88" Hg 1012 hPa